Santa Susana, California
Current Conditions -  °F | °C
As of 8:51 AM on Wednesday 22 Oct 2014 (Local Time) from KVNY Reporting Station
Clear Clear  
Wind Chill: 64°   Ceiling: Unl
Heat Index: 64°   Visibility: 10mi
Dew Point: 46°   Wind: 0mph
Humidity: 52%   Direction: NA
Pressure: 29.95"   Gusts: NA
Location:  34.2903°N, 118.687°W
Report Text: KVNY 221551Z 00000KT 10SM CLR 18/08 A2995 RMK AO2 SLP135 T01780078
Loading
Personal Weather Stations






























Interactive Weather Map
Tropical Storm Tracking
New forecast layout! Learn more

10-Day Weather Forecast

Advertisements
Track Severe Weather on mobile